sensor_id;sensor_type;location;lat;lon;timestamp;pressure;altitude;pressure_sealevel;temperature;humidity
37778;BME280;23615;51.506;7.678;2023-03-18T00:00:41;99296.91;;;11.43;91.21
37778;BME280;23615;51.506;7.678;2023-03-18T00:03:07;99295.91;;;11.49;90.99
37778;BME280;23615;51.506;7.678;2023-03-18T00:05:33;99288.09;;;11.43;91.20
37778;BME280;23615;51.506;7.678;2023-03-18T00:08:00;99296.09;;;11.43;91.05
37778;BME280;23615;51.506;7.678;2023-03-18T00:10:26;99290.53;;;11.44;91.22
37778;BME280;23615;51.506;7.678;2023-03-18T00:12:51;99292.69;;;11.47;91.20
37778;BME280;23615;51.506;7.678;2023-03-18T00:15:18;99286.41;;;11.37;91.75
37778;BME280;23615;51.506;7.678;2023-03-18T00:17:44;99285.09;;;11.39;91.83
37778;BME280;23615;51.506;7.678;2023-03-18T00:20:11;99289.63;;;11.39;91.69
37778;BME280;23615;51.506;7.678;2023-03-18T00:22:39;99288.34;;;11.41;91.58
37778;BME280;23615;51.506;7.678;2023-03-18T00:25:06;99289.81;;;11.32;92.20
37778;BME280;23615;51.506;7.678;2023-03-18T00:27:33;99282.25;;;11.46;92.02
37778;BME280;23615;51.506;7.678;2023-03-18T00:29:59;99285.75;;;11.46;91.61
37778;BME280;23615;51.506;7.678;2023-03-18T00:32:25;99277.66;;;11.41;91.45
37778;BME280;23615;51.506;7.678;2023-03-18T00:34:52;99283.19;;;11.35;91.57
37778;BME280;23615;51.506;7.678;2023-03-18T00:37:17;99286.72;;;11.40;91.11
37778;BME280;23615;51.506;7.678;2023-03-18T00:40:01;99297.91;;;11.37;91.34
37778;BME280;23615;51.506;7.678;2023-03-18T00:42:32;99288.28;;;11.36;91.50
37778;BME280;23615;51.506;7.678;2023-03-18T00:45:03;99294.72;;;11.40;91.25
37778;BME280;23615;51.506;7.678;2023-03-18T00:47:30;99293.91;;;11.40;91.30
37778;BME280;23615;51.506;7.678;2023-03-18T00:49:55;99294.72;;;11.40;91.14
37778;BME280;23615;51.506;7.678;2023-03-18T00:52:21;99293.91;;;11.40;91.01
37778;BME280;23615;51.506;7.678;2023-03-18T00:54:47;99295.63;;;11.29;91.26
37778;BME280;23615;51.506;7.678;2023-03-18T00:57:12;99290.38;;;11.34;91.29
37778;BME280;23615;51.506;7.678;2023-03-18T00:59:38;99298.97;;;11.36;91.41
37778;BME280;23615;51.506;7.678;2023-03-18T01:02:04;99292.97;;;11.29;91.57
37778;BME280;23615;51.506;7.678;2023-03-18T01:04:29;99294.66;;;11.35;90.89
37778;BME280;23615;51.506;7.678;2023-03-18T01:06:55;99291.81;;;11.42;90.78
37778;BME280;23615;51.506;7.678;2023-03-18T01:09:20;99291.44;;;11.33;90.97
37778;BME280;23615;51.506;7.678;2023-03-18T01:11:47;99291.63;;;11.27;91.05
37778;BME280;23615;51.506;7.678;2023-03-18T01:14:12;99291.44;;;11.33;91.21
37778;BME280;23615;51.506;7.678;2023-03-18T01:16:37;99290.94;;;11.36;90.98
37778;BME280;23615;51.506;7.678;2023-03-18T01:19:02;99288.81;;;11.38;90.63
37778;BME280;23615;51.506;7.678;2023-03-18T01:21:28;99282.69;;;11.38;90.82
37778;BME280;23615;51.506;7.678;2023-03-18T01:23:53;99281.88;;;11.37;90.74
37778;BME280;23615;51.506;7.678;2023-03-18T01:26:19;99285.38;;;11.38;90.44
37778;BME280;23615;51.506;7.678;2023-03-18T01:28:44;99280.56;;;11.40;90.56
37778;BME280;23615;51.506;7.678;2023-03-18T01:31:09;99278.13;;;11.38;90.04
37778;BME280;23615;51.506;7.678;2023-03-18T01:33:36;99279.50;;;11.41;89.85
37778;BME280;23615;51.506;7.678;2023-03-18T01:36:02;99279.75;;;11.39;89.69
37778;BME280;23615;51.506;7.678;2023-03-18T01:38:28;99280.81;;;11.38;89.59
37778;BME280;23615;51.506;7.678;2023-03-18T01:40:57;99294.66;;;11.35;89.69
37778;BME280;23615;51.506;7.678;2023-03-18T01:43:30;99300.50;;;11.32;89.81
37778;BME280;23615;51.506;7.678;2023-03-18T01:45:58;99301.78;;;11.30;89.90
37778;BME280;23615;51.506;7.678;2023-03-18T01:48:28;99292.41;;;11.27;90.10
37778;BME280;23615;51.506;7.678;2023-03-18T01:51:05;99297.09;;;11.20;90.28
37778;BME280;23615;51.506;7.678;2023-03-18T01:53:40;99301.09;;;11.17;90.66
37778;BME280;23615;51.506;7.678;2023-03-18T01:56:06;99296.31;;;11.19;90.92
37778;BME280;23615;51.506;7.678;2023-03-18T01:58:36;99292.28;;;11.17;91.24
37778;BME280;23615;51.506;7.678;2023-03-18T02:01:08;99291.13;;;11.13;91.32
37778;BME280;23615;51.506;7.678;2023-03-18T02:03:36;99296.06;;;11.21;91.30
37778;BME280;23615;51.506;7.678;2023-03-18T02:06:03;99294.19;;;11.21;91.40
37778;BME280;23615;51.506;7.678;2023-03-18T02:08:28;99300.34;;;11.22;91.46
37778;BME280;23615;51.506;7.678;2023-03-18T02:10:55;99293.38;;;11.21;91.21
37778;BME280;23615;51.506;7.678;2023-03-18T02:13:20;99292.28;;;11.17;91.35
37778;BME280;23615;51.506;7.678;2023-03-18T02:15:55;99280.84;;;11.21;91.55
37778;BME280;23615;51.506;7.678;2023-03-18T02:18:27;99287.97;;;11.16;92.41
37778;BME280;23615;51.506;7.678;2023-03-18T02:21:18;99291.31;;;11.06;92.82
37778;BME280;23615;51.506;7.678;2023-03-18T02:24:07;99286.31;;;11.10;93.90
37778;BME280;23615;51.506;7.678;2023-03-18T02:29:24;99297.03;;;11.15;94.29
37778;BME280;23615;51.506;7.678;2023-03-18T02:31:53;99286.28;;;11.27;93.80
37778;BME280;23615;51.506;7.678;2023-03-18T02:34:21;99291.84;;;11.25;94.03
37778;BME280;23615;51.506;7.678;2023-03-18T02:36:47;99290.19;;;11.19;94.33
37778;BME280;23615;51.506;7.678;2023-03-18T02:39:14;99293.78;;;11.30;94.16
37778;BME280;23615;51.506;7.678;2023-03-18T02:41:40;99294.44;;;11.37;93.53
37778;BME280;23615;51.506;7.678;2023-03-18T02:50:49;99287.88;;;11.28;94.36
37778;BME280;23615;51.506;7.678;2023-03-18T02:53:14;99281.19;;;11.25;94.91
37778;BME280;23615;51.506;7.678;2023-03-18T02:55:40;99275.03;;;11.24;94.41
37778;BME280;23615;51.506;7.678;2023-03-18T02:58:06;99277.50;;;11.31;94.27
37778;BME280;23615;51.506;7.678;2023-03-18T03:00:32;99273.22;;;11.30;93.82
37778;BME280;23615;51.506;7.678;2023-03-18T03:02:57;99274.78;;;11.26;93.85
37778;BME280;23615;51.506;7.678;2023-03-18T03:05:22;99281.09;;;11.20;93.79
37778;BME280;23615;51.506;7.678;2023-03-18T03:07:48;99287.56;;;11.24;93.55
37778;BME280;23615;51.506;7.678;2023-03-18T03:10:13;99293.91;;;11.18;93.27
37778;BME280;23615;51.506;7.678;2023-03-18T03:12:38;99290.72;;;11.21;93.42
37778;BME280;23615;51.506;7.678;2023-03-18T03:15:06;99284.28;;;11.17;93.56
37778;BME280;23615;51.506;7.678;2023-03-18T03:17:32;99294.38;;;11.15;93.16
37778;BME280;23615;51.506;7.678;2023-03-18T03:19:58;99278.59;;;11.13;93.00
37778;BME280;23615;51.506;7.678;2023-03-18T03:22:23;99297.78;;;11.10;92.79
37778;BME280;23615;51.506;7.678;2023-03-18T03:24:49;99296.16;;;11.09;92.47
37778;BME280;23615;51.506;7.678;2023-03-18T03:27:14;99307.31;;;11.06;92.52
37778;BME280;23615;51.506;7.678;2023-03-18T03:29:39;99308.63;;;11.04;92.56
37778;BME280;23615;51.506;7.678;2023-03-18T03:32:05;99308.78;;;10.97;92.65
37778;BME280;23615;51.506;7.678;2023-03-18T03:34:30;99313.09;;;10.98;93.27
37778;BME280;23615;51.506;7.678;2023-03-18T03:36:56;99299.91;;;10.92;93.17
37778;BME280;23615;51.506;7.678;2023-03-18T03:39:21;99306.28;;;10.91;93.38
37778;BME280;23615;51.506;7.678;2023-03-18T03:41:47;99303.38;;;10.92;93.25
37778;BME280;23615;51.506;7.678;2023-03-18T03:44:12;99314.31;;;10.91;93.08
37778;BME280;23615;51.506;7.678;2023-03-18T03:46:37;99316.06;;;10.85;93.14
37778;BME280;23615;51.506;7.678;2023-03-18T03:49:03;99313.63;;;10.83;93.45
37778;BME280;23615;51.506;7.678;2023-03-18T03:51:28;99315.25;;;10.84;93.53
37778;BME280;23615;51.506;7.678;2023-03-18T03:53:54;99315.25;;;10.84;93.12
37778;BME280;23615;51.506;7.678;2023-03-18T03:56:20;99329.63;;;10.83;92.80
37778;BME280;23615;51.506;7.678;2023-03-18T03:58:45;99336.28;;;10.81;92.60
37778;BME280;23615;51.506;7.678;2023-03-18T04:01:10;99331.75;;;10.81;92.81
37778;BME280;23615;51.506;7.678;2023-03-18T04:03:36;99330.63;;;10.77;92.71
37778;BME280;23615;51.506;7.678;2023-03-18T04:06:02;99323.66;;;10.76;92.50
37778;BME280;23615;51.506;7.678;2023-03-18T04:08:27;99331.09;;;10.74;92.77
37778;BME280;23615;51.506;7.678;2023-03-18T04:10:52;99329.97;;;10.70;92.57
37778;BME280;23615;51.506;7.678;2023-03-18T04:13:18;99336.34;;;10.69;92.68
37778;BME280;23615;51.506;7.678;2023-03-18T04:15:44;99336.59;;;10.68;92.68
37778;BME280;23615;51.506;7.678;2023-03-18T04:18:11;99338.13;;;10.64;92.41
37778;BME280;23615;51.506;7.678;2023-03-18T04:20:37;99333.28;;;10.61;92.53
37778;BME280;23615;51.506;7.678;2023-03-18T04:23:03;99336.19;;;10.59;92.90
37778;BME280;23615;51.506;7.678;2023-03-18T04:25:29;99335.13;;;10.60;92.74
37778;BME280;23615;51.506;7.678;2023-03-18T04:27:55;99343.59;;;10.57;92.69
37778;BME280;23615;51.506;7.678;2023-03-18T04:30:20;99343.06;;;10.55;92.75
37778;BME280;23615;51.506;7.678;2023-03-18T04:32:48;99344.81;;;10.49;92.57
37778;BME280;23615;51.506;7.678;2023-03-18T04:35:14;99349.25;;;10.44;92.67
37778;BME280;23615;51.506;7.678;2023-03-18T04:37:40;99349.94;;;10.39;93.00
37778;BME280;23615;51.506;7.678;2023-03-18T04:40:06;99347.28;;;10.39;93.60
37778;BME280;23615;51.506;7.678;2023-03-18T04:42:32;99352.38;;;10.41;94.63
37778;BME280;23615;51.506;7.678;2023-03-18T04:44:57;99355.97;;;10.46;94.52
37778;BME280;23615;51.506;7.678;2023-03-18T04:47:23;99355.41;;;10.61;95.37
37778;BME280;23615;51.506;7.678;2023-03-18T04:49:48;99354.19;;;10.52;95.74
37778;BME280;23615;51.506;7.678;2023-03-18T04:52:14;99360.88;;;10.38;96.77
37778;BME280;23615;51.506;7.678;2023-03-18T04:54:40;99360.63;;;10.39;96.70
37778;BME280;23615;51.506;7.678;2023-03-18T04:57:07;99364.75;;;10.47;96.84
37778;BME280;23615;51.506;7.678;2023-03-18T04:59:32;99364.00;;;10.35;97.08
37778;BME280;23615;51.506;7.678;2023-03-18T05:01:58;99365.44;;;10.26;97.72
37778;BME280;23615;51.506;7.678;2023-03-18T05:04:23;99374.00;;;10.28;97.84
37778;BME280;23615;51.506;7.678;2023-03-18T05:06:49;99373.19;;;10.27;97.44
37778;BME280;23615;51.506;7.678;2023-03-18T05:09:14;99370.97;;;10.36;97.76
37778;BME280;23615;51.506;7.678;2023-03-18T05:11:40;99368.41;;;10.29;97.53
37778;BME280;23615;51.506;7.678;2023-03-18T05:14:05;99372.16;;;10.17;97.80
37778;BME280;23615;51.506;7.678;2023-03-18T05:16:30;99373.91;;;10.11;98.25
37778;BME280;23615;51.506;7.678;2023-03-18T05:18:56;99373.66;;;10.12;98.29
37778;BME280;23615;51.506;7.678;2023-03-18T05:21:21;99373.56;;;10.07;98.17
37778;BME280;23615;51.506;7.678;2023-03-18T05:23:46;99382.03;;;10.04;98.26
37778;BME280;23615;51.506;7.678;2023-03-18T05:26:11;99376.69;;;10.04;98.38
37778;BME280;23615;51.506;7.678;2023-03-18T05:28:37;99375.66;;;10.05;97.83
37778;BME280;23615;51.506;7.678;2023-03-18T05:31:04;99381.66;;;10.12;98.20
37778;BME280;23615;51.506;7.678;2023-03-18T05:33:29;99383.19;;;10.08;97.93
37778;BME280;23615;51.506;7.678;2023-03-18T05:35:55;99385.88;;;9.97;98.71
37778;BME280;23615;51.506;7.678;2023-03-18T05:38:21;99378.78;;;10.02;98.42
37778;BME280;23615;51.506;7.678;2023-03-18T05:40:46;99379.94;;;10.06;98.93
37778;BME280;23615;51.506;7.678;2023-03-18T05:43:11;99387.13;;;10.06;99.30
37778;BME280;23615;51.506;7.678;2023-03-18T05:45:37;99385.94;;;10.13;98.98
37778;BME280;23615;51.506;7.678;2023-03-18T05:48:03;99383.88;;;10.04;100.00
37778;BME280;23615;51.506;7.678;2023-03-18T05:50:31;99382.00;;;10.16;100.00
37778;BME280;23615;51.506;7.678;2023-03-18T05:52:57;99375.97;;;10.21;99.87
37778;BME280;23615;51.506;7.678;2023-03-18T05:55:23;99385.50;;;10.28;100.00
37778;BME280;23615;51.506;7.678;2023-03-18T05:57:48;99385.72;;;10.27;99.56
37778;BME280;23615;51.506;7.678;2023-03-18T06:00:14;99385.91;;;10.37;99.44
37778;BME280;23615;51.506;7.678;2023-03-18T06:02:40;99387.34;;;10.28;99.97
37778;BME280;23615;51.506;7.678;2023-03-18T06:05:06;99395.22;;;10.23;100.00
37778;BME280;23615;51.506;7.678;2023-03-18T06:07:32;99403.06;;;10.29;100.00
37778;BME280;23615;51.506;7.678;2023-03-18T06:09:58;99402.38;;;10.34;99.97
37778;BME280;23615;51.506;7.678;2023-03-18T06:12:23;99401.81;;;10.32;100.00
37778;BME280;23615;51.506;7.678;2023-03-18T06:14:52;99403.63;;;10.43;99.91
37778;BME280;23615;51.506;7.678;2023-03-18T06:17:18;99414.28;;;10.43;99.73
37778;BME280;23615;51.506;7.678;2023-03-18T06:19:43;99409.63;;;10.50;100.00
37778;BME280;23615;51.506;7.678;2023-03-18T06:22:10;99414.97;;;10.50;99.93
37778;BME280;23615;51.506;7.678;2023-03-18T06:24:35;99420.22;;;10.45;100.00
37778;BME280;23615;51.506;7.678;2023-03-18T06:27:00;99417.53;;;10.45;100.00
37778;BME280;23615;51.506;7.678;2023-03-18T06:29:26;99424.13;;;10.54;100.00
37778;BME280;23615;51.506;7.678;2023-03-18T06:31:51;99422.38;;;10.48;99.96
37778;BME280;23615;51.506;7.678;2023-03-18T06:34:17;99424.81;;;10.49;99.82
37778;BME280;23615;51.506;7.678;2023-03-18T06:36:43;99426.66;;;10.49;99.97
37778;BME280;23615;51.506;7.678;2023-03-18T06:39:08;99428.88;;;10.52;100.00
37778;BME280;23615;51.506;7.678;2023-03-18T06:41:34;99439.09;;;10.43;100.00
37778;BME280;23615;51.506;7.678;2023-03-18T06:44:00;99437.72;;;10.69;99.63
37778;BME280;23615;51.506;7.678;2023-03-18T06:46:25;99436.34;;;10.67;99.38
37778;BME280;23615;51.506;7.678;2023-03-18T06:48:50;99440.97;;;10.71;99.46
37778;BME280;23615;51.506;7.678;2023-03-18T06:51:16;99444.56;;;10.65;99.35
37778;BME280;23615;51.506;7.678;2023-03-18T06:53:41;99448.31;;;10.64;99.66
37778;BME280;23615;51.506;7.678;2023-03-18T06:56:07;99451.53;;;10.66;99.62
37778;BME280;23615;51.506;7.678;2023-03-18T06:58:33;99459.53;;;10.66;99.40
37778;BME280;23615;51.506;7.678;2023-03-18T07:00:59;99450.06;;;10.87;98.54
37778;BME280;23615;51.506;7.678;2023-03-18T07:03:25;99455.06;;;10.83;98.55
37778;BME280;23615;51.506;7.678;2023-03-18T07:05:52;99451.59;;;10.83;98.31
37778;BME280;23615;51.506;7.678;2023-03-18T07:08:18;99448.81;;;10.78;98.53
37778;BME280;23615;51.506;7.678;2023-03-18T07:10:43;99455.63;;;10.85;98.51
37778;BME280;23615;51.506;7.678;2023-03-18T07:13:09;99461.78;;;10.86;98.32
37778;BME280;23615;51.506;7.678;2023-03-18T07:15:34;99461.94;;;10.79;98.44
37778;BME280;23615;51.506;7.678;2023-03-18T07:18:00;99463.78;;;10.79;98.51
37778;BME280;23615;51.506;7.678;2023-03-18T07:20:27;99468.75;;;10.87;98.27
37778;BME280;23615;51.506;7.678;2023-03-18T07:22:53;99477.41;;;10.94;97.65
37778;BME280;23615;51.506;7.678;2023-03-18T07:25:18;99477.34;;;10.89;97.85
37778;BME280;23615;51.506;7.678;2023-03-18T07:27:44;99476.06;;;10.92;97.96
37778;BME280;23615;51.506;7.678;2023-03-18T07:30:10;99473.31;;;11.03;97.75
37778;BME280;23615;51.506;7.678;2023-03-18T07:32:36;99475.25;;;10.91;97.82
37778;BME280;23615;51.506;7.678;2023-03-18T07:35:03;99482.66;;;11.34;96.31
37778;BME280;23615;51.506;7.678;2023-03-18T07:37:30;99478.53;;;11.27;96.21
37778;BME280;23615;51.506;7.678;2023-03-18T07:39:55;99485.16;;;11.24;96.14
37778;BME280;23615;51.506;7.678;2023-03-18T07:42:21;99490.16;;;11.20;96.55
37778;BME280;23615;51.506;7.678;2023-03-18T07:44:46;99491.94;;;11.15;97.58
37778;BME280;23615;51.506;7.678;2023-03-18T07:47:11;99492.38;;;11.23;97.17
37778;BME280;23615;51.506;7.678;2023-03-18T07:49:38;99501.84;;;11.31;96.79
37778;BME280;23615;51.506;7.678;2023-03-18T07:52:04;99493.34;;;11.34;97.07
37778;BME280;23615;51.506;7.678;2023-03-18T07:54:29;99493.53;;;11.44;97.22
37778;BME280;23615;51.506;7.678;2023-03-18T07:56:55;99495.84;;;11.57;96.05
37778;BME280;23615;51.506;7.678;2023-03-18T07:59:20;99496.53;;;11.65;95.24
37778;BME280;23615;51.506;7.678;2023-03-18T08:01:46;99500.25;;;11.63;95.56
37778;BME280;23615;51.506;7.678;2023-03-18T08:04:11;99502.75;;;11.70;95.33
37778;BME280;23615;51.506;7.678;2023-03-18T08:06:36;99502.88;;;11.92;94.73
37778;BME280;23615;51.506;7.678;2023-03-18T08:09:03;99504.56;;;11.81;94.46
37778;BME280;23615;51.506;7.678;2023-03-18T08:11:29;99508.88;;;11.82;94.68
37778;BME280;23615;51.506;7.678;2023-03-18T08:13:54;99509.09;;;11.81;94.50
37778;BME280;23615;51.506;7.678;2023-03-18T08:16:19;99511.59;;;11.87;94.97
37778;BME280;23615;51.506;7.678;2023-03-18T08:18:45;99512.56;;;11.98;94.07
37778;BME280;23615;51.506;7.678;2023-03-18T08:21:10;99508.59;;;12.01;93.93
37778;BME280;23615;51.506;7.678;2023-03-18T08:23:36;99511.50;;;11.99;94.26
37778;BME280;23615;51.506;7.678;2023-03-18T08:26:01;99514.22;;;12.21;91.89
37778;BME280;23615;51.506;7.678;2023-03-18T08:28:27;99513.97;;;12.22;92.75
37778;BME280;23615;51.506;7.678;2023-03-18T08:30:53;99521.44;;;12.20;92.56
37778;BME280;23615;51.506;7.678;2023-03-18T08:33:20;99526.88;;;12.25;93.11
37778;BME280;23615;51.506;7.678;2023-03-18T08:35:46;99534.91;;;12.09;93.30
37778;BME280;23615;51.506;7.678;2023-03-18T08:38:11;99535.78;;;12.14;92.01
37778;BME280;23615;51.506;7.678;2023-03-18T08:40:39;99543.88;;;12.36;91.91
37778;BME280;23615;51.506;7.678;2023-03-18T08:43:05;99541.91;;;12.31;91.17
37778;BME280;23615;51.506;7.678;2023-03-18T08:45:31;99545.91;;;12.29;91.50
37778;BME280;23615;51.506;7.678;2023-03-18T08:47:57;99548.31;;;12.30;92.28
37778;BME280;23615;51.506;7.678;2023-03-18T08:50:23;99551.25;;;12.29;92.42
37778;BME280;23615;51.506;7.678;2023-03-18T08:52:53;99551.22;;;12.46;90.38
37778;BME280;23615;51.506;7.678;2023-03-18T08:55:21;99553.53;;;12.59;90.27
37778;BME280;23615;51.506;7.678;2023-03-18T08:57:46;99550.91;;;12.86;88.83
37778;BME280;23615;51.506;7.678;2023-03-18T09:00:12;99559.75;;;12.86;89.74
37778;BME280;23615;51.506;7.678;2023-03-18T09:02:38;99552.72;;;12.80;89.87
37778;BME280;23615;51.506;7.678;2023-03-18T09:05:03;99560.19;;;12.78;89.70
37778;BME280;23615;51.506;7.678;2023-03-18T09:07:29;99558.09;;;12.80;90.58
37778;BME280;23615;51.506;7.678;2023-03-18T09:09:54;99554.41;;;13.08;88.89
37778;BME280;23615;51.506;7.678;2023-03-18T09:12:20;99557.56;;;13.05;88.74
37778;BME280;23615;51.506;7.678;2023-03-18T09:14:46;99556.50;;;12.84;89.05
37778;BME280;23615;51.506;7.678;2023-03-18T09:17:11;99562.25;;;12.71;90.02
37778;BME280;23615;51.506;7.678;2023-03-18T09:19:37;99559.72;;;12.81;89.68
37778;BME280;23615;51.506;7.678;2023-03-18T09:22:02;99564.06;;;12.87;89.23
37778;BME280;23615;51.506;7.678;2023-03-18T09:24:28;99558.00;;;12.75;89.46
37778;BME280;23615;51.506;7.678;2023-03-18T09:26:53;99559.34;;;12.72;89.59
37778;BME280;23615;51.506;7.678;2023-03-18T09:29:18;99562.94;;;12.83;89.29
37778;BME280;23615;51.506;7.678;2023-03-18T09:31:44;99562.88;;;13.00;88.51
37778;BME280;23615;51.506;7.678;2023-03-18T09:34:09;99565.34;;;13.06;88.69
37778;BME280;23615;51.506;7.678;2023-03-18T09:36:37;99570.31;;;12.93;88.98
37778;BME280;23615;51.506;7.678;2023-03-18T09:39:03;99563.63;;;13.17;88.35
37778;BME280;23615;51.506;7.678;2023-03-18T09:50:13;99569.25;;;13.16;86.19
37778;BME280;23615;51.506;7.678;2023-03-18T09:52:43;99568.47;;;13.20;86.90
37778;BME280;23615;51.506;7.678;2023-03-18T09:57:53;99569.75;;;13.39;85.50
37778;BME280;23615;51.506;7.678;2023-03-18T10:00:23;99575.03;;;13.56;85.02
37778;BME280;23615;51.506;7.678;2023-03-18T10:02:57;99578.91;;;13.43;85.76
37778;BME280;23615;51.506;7.678;2023-03-18T10:05:35;99582.19;;;13.51;85.54
37778;BME280;23615;51.506;7.678;2023-03-18T10:08:17;99576.09;;;13.55;83.93
37778;BME280;23615;51.506;7.678;2023-03-18T10:10:45;99576.38;;;13.59;84.30
37778;BME280;23615;51.506;7.678;2023-03-18T10:13:16;99575.16;;;13.71;84.48
37778;BME280;23615;51.506;7.678;2023-03-18T10:15:49;99574.34;;;13.71;82.99
37778;BME280;23615;51.506;7.678;2023-03-18T10:18:35;99583.66;;;13.63;84.26
37778;BME280;23615;51.506;7.678;2023-03-18T10:21:22;99580.00;;;13.74;83.37
37778;BME280;23615;51.506;7.678;2023-03-18T10:26:38;99577.41;;;13.84;83.27
37778;BME280;23615;51.506;7.678;2023-03-18T10:29:24;99573.16;;;13.89;82.23
37778;BME280;23615;51.506;7.678;2023-03-18T10:34:55;99575.97;;;13.72;85.24
37778;BME280;23615;51.506;7.678;2023-03-18T10:37:48;99574.59;;;13.69;84.58
37778;BME280;23615;51.506;7.678;2023-03-18T10:40:17;99577.06;;;13.76;85.13
37778;BME280;23615;51.506;7.678;2023-03-18T10:42:44;99579.25;;;13.84;84.50
37778;BME280;23615;51.506;7.678;2023-03-18T10:45:24;99566.66;;;13.84;84.54
37778;BME280;23615;51.506;7.678;2023-03-18T10:50:41;99577.47;;;14.27;81.60
37778;BME280;23615;51.506;7.678;2023-03-18T10:53:13;99588.00;;;14.38;81.28
37778;BME280;23615;51.506;7.678;2023-03-18T10:58:23;99577.91;;;14.50;80.84
37778;BME280;23615;51.506;7.678;2023-03-18T11:00:49;99581.13;;;14.52;80.21
37778;BME280;23615;51.506;7.678;2023-03-18T11:03:30;99586.25;;;14.59;79.27
37778;BME280;23615;51.506;7.678;2023-03-18T11:05:58;99576.13;;;14.29;80.82
37778;BME280;23615;51.506;7.678;2023-03-18T11:08:36;99575.59;;;14.32;81.96
37778;BME280;23615;51.506;7.678;2023-03-18T11:11:28;99568.47;;;14.48;81.51
37778;BME280;23615;51.506;7.678;2023-03-18T11:13:57;99575.53;;;14.59;82.71
37778;BME280;23615;51.506;7.678;2023-03-18T11:16:45;99569.22;;;14.90;79.60
37778;BME280;23615;51.506;7.678;2023-03-18T11:19:42;99565.13;;;14.73;79.30
37778;BME280;23615;51.506;7.678;2023-03-18T11:22:24;99566.75;;;14.74;79.81
37778;BME280;23615;51.506;7.678;2023-03-18T11:25:19;99559.22;;;14.76;80.97
37778;BME280;23615;51.506;7.678;2023-03-18T11:27:49;99563.56;;;14.82;81.13
37778;BME280;23615;51.506;7.678;2023-03-18T11:32:54;99566.28;;;14.97;81.51
37778;BME280;23615;51.506;7.678;2023-03-18T11:35:23;99567.97;;;15.08;81.55
37778;BME280;23615;51.506;7.678;2023-03-18T11:37:49;99561.81;;;15.23;81.12
37778;BME280;23615;51.506;7.678;2023-03-18T11:40:23;99560.47;;;15.30;80.47
37778;BME280;23615;51.506;7.678;2023-03-18T11:43:02;99558.34;;;15.32;80.35
37778;BME280;23615;51.506;7.678;2023-03-18T11:45:45;99557.34;;;15.64;78.16
37778;BME280;23615;51.506;7.678;2023-03-18T11:48:33;99557.88;;;15.61;76.79
37778;BME280;23615;51.506;7.678;2023-03-18T11:51:37;99558.84;;;15.24;79.17
37778;BME280;23615;51.506;7.678;2023-03-18T11:54:18;99553.25;;;15.41;78.13
37778;BME280;23615;51.506;7.678;2023-03-18T11:59:39;99546.31;;;15.65;78.65
37778;BME280;23615;51.506;7.678;2023-03-18T12:07:52;99539.59;;;15.98;78.14
37778;BME280;23615;51.506;7.678;2023-03-18T12:13:19;99534.75;;;16.00;77.77
37778;BME280;23615;51.506;7.678;2023-03-18T12:16:04;99535.25;;;16.02;78.59
37778;BME280;23615;51.506;7.678;2023-03-18T12:24:21;99535.00;;;16.09;77.72
37778;BME280;23615;51.506;7.678;2023-03-18T12:26:59;99532.56;;;16.02;77.81
37778;BME280;23615;51.506;7.678;2023-03-18T12:32:18;99540.28;;;16.55;78.10
37778;BME280;23615;51.506;7.678;2023-03-18T12:35:06;99547.19;;;16.91;78.25
37778;BME280;23615;51.506;7.678;2023-03-18T12:40:31;99534.25;;;16.88;72.63
37778;BME280;23615;51.506;7.678;2023-03-18T12:43:16;99536.66;;;16.84;72.83
37778;BME280;23615;51.506;7.678;2023-03-18T12:45:51;99547.91;;;17.07;70.53
37778;BME280;23615;51.506;7.678;2023-03-18T12:48:31;99536.97;;;16.78;71.64
37778;BME280;23615;51.506;7.678;2023-03-18T12:51:03;99536.72;;;16.79;69.30
37778;BME280;23615;51.506;7.678;2023-03-18T12:53:34;99535.16;;;16.63;70.27
37778;BME280;23615;51.506;7.678;2023-03-18T12:56:06;99538.91;;;16.67;71.07
37778;BME280;23615;51.506;7.678;2023-03-18T12:58:51;99531.19;;;17.05;69.94
37778;BME280;23615;51.506;7.678;2023-03-18T13:04:03;99524.22;;;16.94;71.36
37778;BME280;23615;51.506;7.678;2023-03-18T13:06:38;99516.63;;;17.06;69.22
37778;BME280;23615;51.506;7.678;2023-03-18T13:09:39;99514.94;;;17.20;70.31
37778;BME280;23615;51.506;7.678;2023-03-18T13:12:13;99511.00;;;17.41;67.24
37778;BME280;23615;51.506;7.678;2023-03-18T13:14:59;99515.50;;;17.17;69.29
37778;BME280;23615;51.506;7.678;2023-03-18T13:17:31;99521.16;;;17.20;67.39
37778;BME280;23615;51.506;7.678;2023-03-18T13:20:03;99518.06;;;17.37;66.84
37778;BME280;23615;51.506;7.678;2023-03-18T13:25:28;99515.47;;;16.68;69.95
37778;BME280;23615;51.506;7.678;2023-03-18T13:28:12;99517.03;;;16.79;68.81
37778;BME280;23615;51.506;7.678;2023-03-18T13:34:05;99502.66;;;16.99;67.73
37778;BME280;23615;51.506;7.678;2023-03-18T13:36:51;99508.41;;;16.77;69.15
37778;BME280;23615;51.506;7.678;2023-03-18T13:39:54;99502.22;;;16.81;69.77
37778;BME280;23615;51.506;7.678;2023-03-18T13:42:27;99505.41;;;16.89;68.16
37778;BME280;23615;51.506;7.678;2023-03-18T13:47:39;99503.69;;;17.08;66.37
37778;BME280;23615;51.506;7.678;2023-03-18T13:50:26;99502.44;;;16.90;67.66
37778;BME280;23615;51.506;7.678;2023-03-18T13:52:55;99503.25;;;16.91;68.37
37778;BME280;23615;51.506;7.678;2023-03-18T13:58:25;99489.03;;;17.58;69.36
37778;BME280;23615;51.506;7.678;2023-03-18T14:13:55;99486.66;;;17.51;68.57
37778;BME280;23615;51.506;7.678;2023-03-18T14:16:23;99479.97;;;17.44;68.94
37778;BME280;23615;51.506;7.678;2023-03-18T14:18:57;99472.81;;;17.29;68.98
37778;BME280;23615;51.506;7.678;2023-03-18T14:21:26;99467.09;;;17.02;67.47
37778;BME280;23615;51.506;7.678;2023-03-18T14:29:28;99473.94;;;17.23;67.15
37778;BME280;23615;51.506;7.678;2023-03-18T14:32:00;99455.25;;;17.32;67.42
37778;BME280;23615;51.506;7.678;2023-03-18T14:34:31;99457.47;;;17.30;67.55
37778;BME280;23615;51.506;7.678;2023-03-18T14:39:42;99449.91;;;17.27;66.57
37778;BME280;23615;51.506;7.678;2023-03-18T14:42:26;99458.81;;;17.27;66.56